Time;durP1;ratioP1;P1;durP2;ratioP2;P2;SDS_P1;SDS_P2;PMS_P1;PMS_P2;Temp;Humidity;BMP_temperature;BMP_pressure;BME280_temperature;BME280_humidity;BME280_pressure;Samples;Min_cycle;Max_cycle;Signal;HPM_P1;HPM_P2
2022/07/05 00:35:05;;;;;;;3.67;1.45;;;;;;;;;;5098218;28;20122;-85
2022/07/05 00:44:17;;;;;;;5.10;1.70;;;;;;;;;;4986572;28;20061;-85
2022/07/05 00:48:22;;;;;;;4.30;1.60;;;;;;;;;;4939320;29;20063;-85
2022/07/05 04:32:53;;;;;;;7.57;2.35;;;;;;;;;;5094287;28;20075;-84
2022/07/05 04:50:05;;;;;;;5.63;2.28;;;;;;;;;;5043543;28;20041;-84
2022/07/05 05:11:43;;;;;;;3.55;1.80;;;;;;;;;;5098853;27;20043;-83
2022/07/05 05:14:12;;;;;;;4.40;2.08;;;;;;;;;;5070193;28;20047;-82
2022/07/05 05:16:39;;;;;;;3.33;2.13;;;;;;;;;;5083345;28;20098;-83
2022/07/05 05:19:08;;;;;;;4.80;2.17;;;;;;;;;;5097385;28;20531;-84
2022/07/05 05:21:41;;;;;;;5.03;2.75;;;;;;;;;;5098675;28;20528;-84
2022/07/05 05:24:09;;;;;;;4.10;2.17;;;;;;;;;;5077754;28;20196;-82
2022/07/05 05:26:42;;;;;;;4.35;1.60;;;;;;;;;;5078607;28;20051;-83
2022/07/05 05:29:09;;;;;;;5.57;1.92;;;;;;;;;;5094254;28;20036;-84
2022/07/05 05:31:50;;;;;;;6.45;1.85;;;;;;;;;;5066494;28;20067;-84
2022/07/05 05:34:32;;;;;;;3.83;1.95;;;;;;;;;;5071228;28;20058;-86
2022/07/05 05:38:21;;;;;;;8.63;2.20;;;;;;;;;;5084788;28;20040;-88
2022/07/05 05:41:16;;;;;;;5.72;1.65;;;;;;;;;;4984394;28;20137;-83
2022/07/05 05:45:09;;;;;;;5.60;1.80;;;;;;;;;;4964203;28;20599;-84
2022/07/05 05:49:45;;;;;;;5.88;1.73;;;;;;;;;;4965455;28;20038;-84
2022/07/05 05:52:51;;;;;;;3.45;1.52;;;;;;;;;;4885705;29;20060;-83
2022/07/05 05:55:47;;;;;;;3.08;1.63;;;;;;;;;;4892246;29;20060;-84
2022/07/05 05:58:17;;;;;;;5.30;1.50;;;;;;;;;;4888337;29;20067;-84
2022/07/05 06:01:14;;;;;;;3.78;1.75;;;;;;;;;;4884658;29;20067;-84
2022/07/05 06:03:55;;;;;;;7.28;2.03;;;;;;;;;;4889659;29;20062;-85
2022/07/05 06:06:37;;;;;;;5.05;1.58;;;;;;;;;;4888762;29;20056;-84
2022/07/05 06:09:19;;;;;;;4.63;1.55;;;;;;;;;;4874297;29;20124;-84
2022/07/05 06:11:47;;;;;;;6.82;1.60;;;;;;;;;;4897290;29;20064;-84
2022/07/05 06:14:15;;;;;;;4.63;1.80;;;;;;;;;;4889664;29;20088;-84
2022/07/05 06:16:43;;;;;;;3.92;1.48;;;;;;;;;;4953040;28;20046;-84
2022/07/05 06:19:11;;;;;;;5.40;1.42;;;;;;;;;;4992827;28;20507;-84
2022/07/05 06:21:39;;;;;;;3.63;1.42;;;;;;;;;;4997575;28;20050;-84
2022/07/05 06:24:07;;;;;;;8.85;1.73;;;;;;;;;;5013958;28;20081;-84
2022/07/05 06:26:43;;;;;;;5.57;2.13;;;;;;;;;;5013904;28;20163;-84
2022/07/05 06:29:11;;;;;;;3.40;1.40;;;;;;;;;;5013333;28;20097;-84
2022/07/05 06:31:39;;;;;;;6.25;1.50;;;;;;;;;;4993307;28;20058;-84
2022/07/05 06:34:07;;;;;;;4.47;1.55;;;;;;;;;;4996895;28;20590;-84
2022/07/05 06:36:35;;;;;;;4.93;1.40;;;;;;;;;;5012840;28;20156;-85
2022/07/05 06:39:11;;;;;;;6.18;1.73;;;;;;;;;;5012071;28;20049;-84
2022/07/05 06:41:41;;;;;;;3.58;1.35;;;;;;;;;;5012265;28;20049;-84
2022/07/05 06:44:13;;;;;;;4.10;1.50;;;;;;;;;;4997268;28;20068;-83
2022/07/05 06:47:01;;;;;;;6.53;1.30;;;;;;;;;;5012666;28;20060;-84
2022/07/05 06:49:29;;;;;;;6.32;1.33;;;;;;;;;;5079966;28;20051;-84
2022/07/05 06:52:36;;;;;;;4.03;1.20;;;;;;;;;;5082758;28;20049;-84
2022/07/05 06:55:09;;;;;;;6.57;1.25;;;;;;;;;;5077195;28;20067;-84
2022/07/05 06:58:08;;;;;;;3.33;1.33;;;;;;;;;;5093747;27;20060;-84
2022/07/05 07:00:50;;;;;;;7.65;1.55;;;;;;;;;;5063335;28;20087;-85
2022/07/05 07:03:32;;;;;;;4.53;1.40;;;;;;;;;;5076592;28;20055;-85
2022/07/05 07:06:20;;;;;;;3.00;1.40;;;;;;;;;;5064515;27;20447;-84
2022/07/05 07:09:17;;;;;;;6.50;1.48;;;;;;;;;;5080309;28;20059;-84
2022/07/05 07:11:59;;;;;;;4.97;1.77;;;;;;;;;;5064644;28;20201;-84
2022/07/05 07:14:39;;;;;;;2.95;1.20;;;;;;;;;;5092756;28;20072;-84
2022/07/05 07:17:17;;;;;;;6.35;1.30;;;;;;;;;;5094306;27;20135;-84
2022/07/05 07:19:53;;;;;;;2.63;1.05;;;;;;;;;;5078403;28;20055;-84
2022/07/05 07:22:35;;;;;;;2.85;1.13;;;;;;;;;;5078162;28;20055;-83
2022/07/05 07:25:41;;;;;;;3.65;1.20;;;;;;;;;;5083374;28;20047;-84
2022/07/05 07:28:24;;;;;;;4.10;1.15;;;;;;;;;;5094074;28;20059;-84
2022/07/05 07:31:09;;;;;;;3.75;1.00;;;;;;;;;;5064517;28;20083;-83
2022/07/05 07:33:56;;;;;;;5.53;1.40;;;;;;;;;;5095135;28;20047;-84
2022/07/05 07:36:25;;;;;;;2.30;1.23;;;;;;;;;;5077683;28;20043;-85
2022/07/05 07:38:57;;;;;;;3.08;1.20;;;;;;;;;;5093585;28;20727;-85
2022/07/05 07:41:40;;;;;;;3.80;1.00;;;;;;;;;;5078656;28;20521;-84
2022/07/05 07:44:41;;;;;;;3.58;1.02;;;;;;;;;;5094832;28;20044;-85
2022/07/05 07:47:09;;;;;;;2.25;0.65;;;;;;;;;;5073824;28;20105;-85
2022/07/05 07:49:52;;;;;;;5.13;0.90;;;;;;;;;;5079487;28;20060;-85
2022/07/05 07:52:33;;;;;;;3.15;1.08;;;;;;;;;;5075904;28;20059;-84
2022/07/05 07:55:15;;;;;;;1.83;0.70;;;;;;;;;;5079830;28;20144;-83
2022/07/05 07:57:57;;;;;;;8.45;0.73;;;;;;;;;;5091653;28;20048;-84
2022/07/05 08:00:39;;;;;;;2.42;0.90;;;;;;;;;;5061510;28;20078;-84
2022/07/05 08:03:32;;;;;;;2.10;0.60;;;;;;;;;;5078437;28;20078;-83
2022/07/05 08:06:23;;;;;;;3.83;0.63;;;;;;;;;;5077039;28;20051;-84
2022/07/05 08:09:10;;;;;;;4.00;1.00;;;;;;;;;;5091856;28;20525;-85
2022/07/05 08:11:55;;;;;;;2.97;0.80;;;;;;;;;;5095806;28;20429;-84
2022/07/05 08:14:42;;;;;;;2.90;0.90;;;;;;;;;;5065950;28;20087;-84
2022/07/05 08:17:23;;;;;;;2.15;0.70;;;;;;;;;;5053291;28;20063;-85
2022/07/05 08:23:19;;;;;;;3.45;0.75;;;;;;;;;;5093898;28;20072;-84
2022/07/05 08:25:47;;;;;;;2.97;0.80;;;;;;;;;;5076931;28;20600;-84
2022/07/05 08:28:19;;;;;;;2.67;0.80;;;;;;;;;;5078767;28;20067;-84
2022/07/05 08:30:52;;;;;;;1.60;0.60;;;;;;;;;;5094272;28;20040;-84
2022/07/05 08:33:19;;;;;;;1.70;0.60;;;;;;;;;;5077755;28;20543;-85
2022/07/05 08:35:54;;;;;;;4.00;0.73;;;;;;;;;;5075526;28;20487;-85
2022/07/05 08:38:29;;;;;;;2.25;0.68;;;;;;;;;;5093914;28;20084;-84
2022/07/05 08:41:12;;;;;;;5.78;0.80;;;;;;;;;;5075224;28;20085;-84
2022/07/05 08:44:13;;;;;;;5.05;0.80;;;;;;;;;;5063662;28;20067;-84
2022/07/05 08:47:22;;;;;;;11.48;0.88;;;;;;;;;;5097017;28;20044;-84
2022/07/05 08:50:29;;;;;;;1.88;0.68;;;;;;;;;;5085929;28;20524;-85
2022/07/05 08:53:12;;;;;;;19.25;1.15;;;;;;;;;;5095320;28;20052;-83
2022/07/05 08:55:54;;;;;;;4.28;0.70;;;;;;;;;;5096902;28;20048;-83
2022/07/05 08:58:40;;;;;;;3.53;0.75;;;;;;;;;;5097768;28;20062;-83
2022/07/05 09:01:26;;;;;;;2.13;0.65;;;;;;;;;;5078667;28;20077;-84
2022/07/05 09:04:16;;;;;;;2.63;0.60;;;;;;;;;;5065815;28;20043;-85
2022/07/05 09:07:07;;;;;;;2.42;0.68;;;;;;;;;;5080828;28;20191;-84
2022/07/05 09:09:56;;;;;;;2.22;0.45;;;;;;;;;;5095733;28;20076;-85
2022/07/05 09:12:40;;;;;;;2.00;0.93;;;;;;;;;;5094878;28;20064;-84
2022/07/05 09:15:31;;;;;;;4.63;0.60;;;;;;;;;;5056458;28;20287;-85
2022/07/05 09:18:40;;;;;;;1.58;0.60;;;;;;;;;;5064856;28;20165;-84
2022/07/05 09:21:28;;;;;;;5.78;0.88;;;;;;;;;;5081083;28;20087;-84
2022/07/05 09:24:15;;;;;;;1.27;0.50;;;;;;;;;;5074027;28;20195;-83
2022/07/05 09:27:05;;;;;;;3.88;0.90;;;;;;;;;;5094199;28;20120;-84
2022/07/05 09:29:56;;;;;;;4.88;0.70;;;;;;;;;;5069243;28;20056;-84
2022/07/05 09:32:37;;;;;;;2.38;1.30;;;;;;;;;;5093978;27;20132;-85
2022/07/05 09:35:20;;;;;;;1.23;0.50;;;;;;;;;;5093350;28;20063;-85
2022/07/05 09:38:06;;;;;;;1.23;0.55;;;;;;;;;;5094827;28;20048;-85
2022/07/05 09:40:58;;;;;;;3.85;0.70;;;;;;;;;;5077159;28;20052;-84
2022/07/05 09:43:40;;;;;;;1.48;0.70;;;;;;;;;;5076626;28;20055;-84
2022/07/05 09:46:29;;;;;;;3.83;1.00;;;;;;;;;;5062842;28;20055;-85
2022/07/05 09:49:11;;;;;;;4.60;0.60;;;;;;;;;;5060809;28;20051;-85
2022/07/05 09:52:32;;;;;;;4.22;0.65;;;;;;;;;;5096416;28;20068;-84
2022/07/05 09:55:35;;;;;;;0.80;0.50;;;;;;;;;;5094279;28;20052;-85
2022/07/05 09:58:29;;;;;;;3.15;1.10;;;;;;;;;;5081948;28;20043;-84
2022/07/05 10:01:30;;;;;;;1.80;0.63;;;;;;;;;;5044337;28;20074;-85
2022/07/05 10:04:12;;;;;;;3.00;0.82;;;;;;;;;;5083084;28;20541;-84
2022/07/05 10:06:42;;;;;;;3.10;0.68;;;;;;;;;;5076291;27;20075;-85
2022/07/05 10:09:23;;;;;;;9.98;0.85;;;;;;;;;;5068517;28;20059;-85
2022/07/05 10:11:57;;;;;;;4.03;0.80;;;;;;;;;;5090140;28;20284;-84
2022/07/05 10:14:40;;;;;;;1.83;0.70;;;;;;;;;;5095716;28;20051;-83
2022/07/05 10:17:17;;;;;;;1.10;0.50;;;;;;;;;;5093103;28;20051;-83
2022/07/05 10:19:59;;;;;;;1.80;0.68;;;;;;;;;;5097335;28;20144;-85
2022/07/05 10:22:29;;;;;;;3.03;0.60;;;;;;;;;;5063519;28;20705;-85
2022/07/05 10:25:14;;;;;;;2.40;0.50;;;;;;;;;;5065857;28;20462;-84
2022/07/05 10:27:55;;;;;;;5.85;1.00;;;;;;;;;;5097659;28;20414;-84
2022/07/05 10:30:38;;;;;;;2.45;0.50;;;;;;;;;;5096712;28;20126;-85
2022/07/05 10:33:26;;;;;;;1.05;0.40;;;;;;;;;;5097559;27;20047;-84
2022/07/05 10:36:10;;;;;;;1.23;0.55;;;;;;;;;;5083092;28;20082;-85
2022/07/05 10:38:44;;;;;;;1.08;0.35;;;;;;;;;;5080944;28;20143;-85
2022/07/05 10:41:23;;;;;;;1.33;0.57;;;;;;;;;;5097942;28;20044;-84
2022/07/05 10:43:58;;;;;;;0.95;0.60;;;;;;;;;;5078121;28;20422;-84
2022/07/05 10:46:45;;;;;;;3.10;0.50;;;;;;;;;;5095792;28;20410;-84
2022/07/05 10:49:17;;;;;;;2.33;0.60;;;;;;;;;;5079863;28;20059;-84
2022/07/05 10:51:48;;;;;;;1.17;0.35;;;;;;;;;;5098674;28;20052;-85
2022/07/05 10:54:19;;;;;;;1.35;0.50;;;;;;;;;;5095693;28;20121;-84
2022/07/05 10:57:24;;;;;;;0.90;0.40;;;;;;;;;;5060454;28;20146;-83
2022/07/05 11:00:22;;;;;;;1.73;0.60;;;;;;;;;;5080087;28;20036;-83
2022/07/05 11:03:32;;;;;;;2.50;0.50;;;;;;;;;;5075612;28;20459;-83
2022/07/05 11:06:01;;;;;;;2.85;0.77;;;;;;;;;;5095015;28;20559;-83
2022/07/05 11:08:59;;;;;;;1.45;0.45;;;;;;;;;;5094632;28;20055;-83
2022/07/05 11:11:53;;;;;;;1.70;0.47;;;;;;;;;;5082220;28;20570;-83
2022/07/05 11:14:48;;;;;;;4.10;0.60;;;;;;;;;;5063063;28;20413;-83
2022/07/05 11:17:45;;;;;;;2.78;0.55;;;;;;;;;;5076807;28;20036;-83
2022/07/05 11:20:32;;;;;;;2.42;0.40;;;;;;;;;;5079976;28;20059;-84
2022/07/05 11:23:27;;;;;;;1.13;0.40;;;;;;;;;;5080888;28;20094;-85
2022/07/05 11:26:36;;;;;;;2.00;0.40;;;;;;;;;;5095736;28;20386;-85
2022/07/05 11:29:48;;;;;;;1.63;0.50;;;;;;;;;;5075280;28;20425;-83
2022/07/05 11:32:37;;;;;;;1.27;0.40;;;;;;;;;;5066459;28;20063;-85
2022/07/05 11:35:34;;;;;;;2.95;0.50;;;;;;;;;;5079315;28;20052;-83
2022/07/05 11:43:08;;;;;;;2.15;0.50;;;;;;;;;;5050177;28;20071;-85
2022/07/05 11:45:56;;;;;;;2.00;0.40;;;;;;;;;;5026723;28;20055;-83
2022/07/05 11:48:39;;;;;;;1.88;0.70;;;;;;;;;;5049246;28;20664;-85
2022/07/05 11:57:34;;;;;;;1.30;0.50;;;;;;;;;;5050022;28;20060;-84
2022/07/05 12:02:24;;;;;;;0.43;0.30;;;;;;;;;;4997804;28;20034;-85
2022/07/05 12:07:26;;;;;;;1.45;0.40;;;;;;;;;;4975810;28;20046;-84
2022/07/05 12:13:13;;;;;;;;;;;;;;;;;;4905166;29;20103;-85
2022/07/05 12:16:39;;;;;;;1.90;0.40;;;;;;;;;;4902569;29;19982;-85
2022/07/05 12:20:48;;;;;;;3.17;0.63;;;;;;;;;;4872976;29;20116;-84
2022/07/05 12:24:48;;;;;;;0.77;0.50;;;;;;;;;;4864810;29;20531;-83
2022/07/05 12:28:06;;;;;;;1.25;0.68;;;;;;;;;;4872617;29;20849;-83
2022/07/05 12:30:37;;;;;;;3.40;0.50;;;;;;;;;;4838487;29;20067;-82
2022/07/05 12:33:05;;;;;;;1.23;0.40;;;;;;;;;;4890209;29;20064;-82
2022/07/05 12:35:43;;;;;;;1.77;0.45;;;;;;;;;;4890937;29;20072;-82
2022/07/05 12:38:19;;;;;;;1.42;0.47;;;;;;;;;;4892777;29;20151;-82
2022/07/05 12:40:56;;;;;;;2.30;0.50;;;;;;;;;;4896105;29;20060;-82
2022/07/05 12:43:29;;;;;;;1.75;0.70;;;;;;;;;;4966068;28;20062;-82
2022/07/05 12:46:05;;;;;;;2.13;0.50;;;;;;;;;;4977851;28;20093;-82
2022/07/05 12:48:35;;;;;;;2.63;0.60;;;;;;;;;;4981913;28;20087;-82
2022/07/05 12:51:10;;;;;;;1.77;0.60;;;;;;;;;;5032697;28;20059;-82
2022/07/05 12:59:55;;;;;;;1.85;0.70;;;;;;;;;;5070506;28;21008;-83
2022/07/05 13:02:45;;;;;;;2.15;0.57;;;;;;;;;;5063500;28;20078;-83
2022/07/05 13:05:24;;;;;;;1.45;0.50;;;;;;;;;;5046217;28;20076;-83
2022/07/05 13:07:52;;;;;;;2.45;0.70;;;;;;;;;;5055856;28;20056;-83
2022/07/05 13:10:31;;;;;;;1.58;0.50;;;;;;;;;;5068561;28;20686;-83
2022/07/05 13:13:11;;;;;;;2.13;0.80;;;;;;;;;;5039241;28;20413;-82
2022/07/05 13:15:39;;;;;;;1.53;0.60;;;;;;;;;;5056907;28;20494;-82
2022/07/05 13:18:07;;;;;;;2.95;0.35;;;;;;;;;;5038109;28;20056;-82
2022/07/05 13:20:35;;;;;;;2.80;0.60;;;;;;;;;;5057140;28;20059;-82
2022/07/05 13:23:07;;;;;;;2.95;0.68;;;;;;;;;;5031146;28;20040;-82
2022/07/05 13:25:35;;;;;;;3.03;0.70;;;;;;;;;;5058991;28;20060;-82
2022/07/05 13:28:04;;;;;;;3.03;0.60;;;;;;;;;;5056134;28;20056;-82
2022/07/05 13:30:31;;;;;;;3.85;0.70;;;;;;;;;;5070632;28;20135;-82
2022/07/05 13:32:59;;;;;;;2.38;0.85;;;;;;;;;;5060129;28;20417;-83
2022/07/05 13:36:08;;;;;;;3.60;0.93;;;;;;;;;;5070256;28;20048;-85
2022/07/05 13:38:35;;;;;;;4.18;0.60;;;;;;;;;;5032988;28;20082;-82
2022/07/05 13:41:03;;;;;;;5.25;0.70;;;;;;;;;;5033126;28;20042;-82
2022/07/05 13:43:31;;;;;;;2.63;0.70;;;;;;;;;;5032608;28;20057;-82
2022/07/05 13:45:59;;;;;;;5.65;0.90;;;;;;;;;;5018820;28;20075;-82
2022/07/05 13:48:36;;;;;;;3.40;1.17;;;;;;;;;;5020230;28;20049;-89
2022/07/05 13:51:09;;;;;;;4.35;0.90;;;;;;;;;;4987129;28;20050;-82
2022/07/05 13:53:37;;;;;;;2.35;0.75;;;;;;;;;;5033832;28;20140;-82
2022/07/05 13:56:31;;;;;;;2.17;0.90;;;;;;;;;;5006792;28;20040;-83
2022/07/05 13:59:13;;;;;;;1.85;0.70;;;;;;;;;;5026836;28;20498;-83
2022/07/05 14:02:05;;;;;;;3.92;0.60;;;;;;;;;;5011889;28;20049;-83
2022/07/05 14:05:50;;;;;;;1.23;0.60;;;;;;;;;;5023141;28;20099;-86
2022/07/05 14:10:24;;;;;;;2.92;0.70;;;;;;;;;;5010053;28;20068;-85
2022/07/05 14:14:36;;;;;;;3.90;0.80;;;;;;;;;;5022665;28;20131;-85
2022/07/05 14:17:17;;;;;;;1.83;0.40;;;;;;;;;;4973512;28;20148;-84
2022/07/05 14:20:25;;;;;;;2.28;0.45;;;;;;;;;;5022906;28;20049;-85
2022/07/05 14:23:18;;;;;;;2.38;0.57;;;;;;;;;;5008197;28;20057;-85
2022/07/05 14:26:06;;;;;;;5.05;0.70;;;;;;;;;;5004853;28;20187;-85
2022/07/05 14:29:42;;;;;;;6.07;0.90;;;;;;;;;;5006212;28;20072;-86
2022/07/05 14:34:08;;;;;;;1.05;0.55;;;;;;;;;;5023683;28;20049;-87
2022/07/05 14:37:59;;;;;;;3.78;0.63;;;;;;;;;;5014903;28;20724;-87
2022/07/05 14:42:17;;;;;;;3.45;0.70;;;;;;;;;;5000449;28;20050;-86
2022/07/05 14:45:53;;;;;;;1.00;0.60;;;;;;;;;;5004706;28;20066;-86
2022/07/05 16:07:39;;;;;;;4.15;0.80;;;;;;;;;;4995498;28;20056;-84
2022/07/05 16:10:14;;;;;;;3.40;0.63;;;;;;;;;;4980939;28;20786;-83
2022/07/05 16:13:27;;;;;;;4.95;0.77;;;;;;;;;;4987736;28;20046;-84
2022/07/05 16:16:11;;;;;;;5.18;1.30;;;;;;;;;;5006327;28;20112;-89
2022/07/05 16:29:34;;;;;;;2.80;0.70;;;;;;;;;;4923888;29;20035;-83
2022/07/05 16:32:40;;;;;;;7.35;0.80;;;;;;;;;;4923430;29;20059;-86
2022/07/05 16:36:47;;;;;;;2.90;0.80;;;;;;;;;;4919202;29;20051;-84
2022/07/05 16:39:39;;;;;;;;;;;;;;;;;;4922041;29;20055;-85
2022/07/05 16:47:54;;;;;;;2.63;1.10;;;;;;;;;;4903034;29;20523;-85
2022/07/05 16:51:08;;;;;;;4.18;0.85;;;;;;;;;;4874955;29;20048;-85
2022/07/05 16:54:27;;;;;;;4.55;0.90;;;;;;;;;;4890591;29;20510;-85
2022/07/05 16:58:40;;;;;;;5.28;0.80;;;;;;;;;;4885322;29;20060;-85
2022/07/05 17:01:19;;;;;;;4.95;0.88;;;;;;;;;;4901837;29;20471;-86
2022/07/05 17:04:25;;;;;;;2.05;0.70;;;;;;;;;;4889904;29;20074;-86
2022/07/05 17:07:37;;;;;;;3.13;1.17;;;;;;;;;;4906152;29;20088;-86
2022/07/05 17:11:50;;;;;;;2.92;0.77;;;;;;;;;;4913951;29;20052;-88
2022/07/05 17:16:00;;;;;;;1.63;0.70;;;;;;;;;;4873127;29;20055;-85
2022/07/05 17:19:16;;;;;;;4.72;0.93;;;;;;;;;;4946113;28;20061;-86
2022/07/05 17:22:10;;;;;;;2.88;0.70;;;;;;;;;;4927942;29;20988;-87
2022/07/05 17:25:03;;;;;;;4.93;0.90;;;;;;;;;;4945927;28;20470;-86
2022/07/05 17:27:44;;;;;;;2.53;0.75;;;;;;;;;;4943102;28;20067;-87
2022/07/05 17:31:43;;;;;;;4.47;1.10;;;;;;;;;;4945527;28;20058;-86
2022/07/05 17:35:57;;;;;;;7.07;0.98;;;;;;;;;;4976656;28;20047;-86
2022/07/05 17:54:27;;;;;;;3.50;0.90;;;;;;;;;;4888731;29;20142;-86
2022/07/05 18:03:44;;;;;;;4.07;0.88;;;;;;;;;;4836747;29;20143;-88
2022/07/05 18:40:17;;;;;;;4.05;0.85;;;;;;;;;;4864841;29;20100;-87
2022/07/05 18:43:29;;;;;;;6.13;0.80;;;;;;;;;;4849966;29;20049;-84
2022/07/05 18:45:59;;;;;;;5.63;1.10;;;;;;;;;;4859669;29;20143;-83
2022/07/05 18:48:27;;;;;;;4.15;0.85;;;;;;;;;;4892805;29;20147;-85
2022/07/05 18:51:03;;;;;;;3.20;0.90;;;;;;;;;;4924969;28;20062;-84
2022/07/05 19:04:04;;;;;;;4.70;1.20;;;;;;;;;;4804729;29;20047;-84
2022/07/05 19:13:49;;;;;;;2.05;0.75;;;;;;;;;;4879439;29;20048;-85
2022/07/05 19:17:16;;;;;;;2.50;0.88;;;;;;;;;;4942456;28;20125;-85
2022/07/05 19:20:18;;;;;;;5.43;0.90;;;;;;;;;;4935671;28;20052;-82
2022/07/05 19:23:31;;;;;;;3.53;0.93;;;;;;;;;;4938903;28;20383;-83
2022/07/05 19:26:00;;;;;;;2.80;0.82;;;;;;;;;;4960415;28;20065;-82
2022/07/05 19:28:27;;;;;;;3.00;0.68;;;;;;;;;;4961857;28;20050;-82
2022/07/05 19:30:56;;;;;;;2.88;0.80;;;;;;;;;;4979978;28;20488;-82
2022/07/05 19:33:23;;;;;;;3.95;0.82;;;;;;;;;;4998315;28;20144;-82
2022/07/05 19:35:51;;;;;;;2.13;0.77;;;;;;;;;;5048640;28;20110;-83
2022/07/05 19:39:08;;;;;;;2.23;0.90;;;;;;;;;;5049351;28;20056;-83
2022/07/05 19:41:35;;;;;;;3.55;0.90;;;;;;;;;;5024383;28;20056;-83
2022/07/05 19:44:03;;;;;;;3.30;1.15;;;;;;;;;;5046447;28;20148;-83
2022/07/05 19:46:31;;;;;;;5.20;1.20;;;;;;;;;;5031380;28;20081;-83
2022/07/05 19:48:59;;;;;;;3.05;1.08;;;;;;;;;;5049937;28;20069;-84
2022/07/05 19:51:28;;;;;;;4.70;1.27;;;;;;;;;;5046607;28;20288;-84
2022/07/05 19:53:55;;;;;;;3.00;1.00;;;;;;;;;;5032101;28;20149;-84
2022/07/05 19:56:23;;;;;;;4.68;1.40;;;;;;;;;;5047957;28;20704;-84
2022/07/05 19:58:51;;;;;;;3.13;0.93;;;;;;;;;;5032298;28;20546;-84
2022/07/05 20:01:20;;;;;;;5.90;1.75;;;;;;;;;;5041725;28;20071;-82
2022/07/05 20:03:47;;;;;;;4.57;1.40;;;;;;;;;;5029752;28;20081;-83
2022/07/05 20:06:19;;;;;;;2.72;0.98;;;;;;;;;;5055382;28;20897;-82
2022/07/05 20:08:48;;;;;;;3.75;0.98;;;;;;;;;;5071361;28;20056;-84
2022/07/05 20:11:21;;;;;;;8.48;1.40;;;;;;;;;;5039589;28;20040;-84
2022/07/05 20:14:09;;;;;;;6.50;1.05;;;;;;;;;;5045097;28;20053;-84
2022/07/05 20:16:37;;;;;;;7.10;1.40;;;;;;;;;;5056551;28;20094;-83
2022/07/05 20:19:05;;;;;;;5.97;1.25;;;;;;;;;;5054052;28;20125;-83
2022/07/05 20:21:38;;;;;;;3.45;0.90;;;;;;;;;;5072926;28;20044;-83
2022/07/05 20:24:06;;;;;;;5.47;1.13;;;;;;;;;;5058081;28;20056;-83
2022/07/05 20:26:34;;;;;;;2.92;1.27;;;;;;;;;;5054146;28;20067;-84
2022/07/05 20:34:39;;;;;;;3.17;0.90;;;;;;;;;;5079754;28;20048;-83
2022/07/05 20:38:17;;;;;;;9.02;1.40;;;;;;;;;;5072173;28;20048;-84
2022/07/05 20:41:11;;;;;;;4.43;1.20;;;;;;;;;;5061569;28;20133;-83
2022/07/05 20:45:22;;;;;;;9.80;2.15;;;;;;;;;;5055592;28;20044;-85
2022/07/05 20:49:37;;;;;;;3.85;1.30;;;;;;;;;;5029010;28;20045;-84
2022/07/05 20:52:40;;;;;;;5.05;1.10;;;;;;;;;;5007634;28;20057;-85
2022/07/05 20:55:22;;;;;;;1.80;0.70;;;;;;;;;;5036469;28;20057;-84
2022/07/05 20:58:31;;;;;;;7.57;2.08;;;;;;;;;;5039187;28;20535;-84
2022/07/05 21:01:38;;;;;;;3.03;0.90;;;;;;;;;;5013233;28;20219;-85
2022/07/05 21:04:29;;;;;;;5.57;1.73;;;;;;;;;;5022122;28;20527;-84
2022/07/05 21:17:04;;;;;;;7.53;1.30;;;;;;;;;;5033417;28;20053;-89
2022/07/05 21:20:57;;;;;;;5.88;1.55;;;;;;;;;;5013349;28;20053;-84
2022/07/05 22:20:20;;;;;;;4.07;1.40;;;;;;;;;;5056862;28;20051;-85
2022/07/05 22:23:02;;;;;;;7.22;1.67;;;;;;;;;;5059430;28;20048;-84
2022/07/05 22:26:28;;;;;;;2.70;0.88;;;;;;;;;;5067979;28;20416;-84
2022/07/05 22:30:56;;;;;;;3.63;0.98;;;;;;;;;;5074641;28;20125;-83
2022/07/05 22:34:19;;;;;;;4.50;1.20;;;;;;;;;;5072998;28;20048;-84
2022/07/05 22:38:27;;;;;;;3.33;1.00;;;;;;;;;;5046889;28;20060;-84
2022/07/05 22:41:29;;;;;;;2.08;0.90;;;;;;;;;;5035911;28;20056;-84
2022/07/05 22:44:12;;;;;;;6.50;1.40;;;;;;;;;;5053500;28;20056;-84
2022/07/05 22:48:29;;;;;;;3.00;1.00;;;;;;;;;;4984398;28;20045;-84
2022/07/05 22:52:16;;;;;;;7.43;1.27;;;;;;;;;;4997161;28;20058;-84
2022/07/05 22:54:57;;;;;;;4.20;1.90;;;;;;;;;;4951969;28;20112;-85
2022/07/05 22:57:49;;;;;;;4.72;1.67;;;;;;;;;;4975797;28;20123;-84
2022/07/05 23:01:15;;;;;;;3.42;1.00;;;;;;;;;;4979044;28;20416;-83
2022/07/05 23:04:15;;;;;;;3.63;1.10;;;;;;;;;;4994676;28;20057;-85
2022/07/05 23:07:10;;;;;;;6.82;1.83;;;;;;;;;;4980968;28;20046;-84
2022/07/05 23:09:59;;;;;;;10.63;1.63;;;;;;;;;;5003019;28;20146;-84
2022/07/05 23:13:07;;;;;;;4.72;1.42;;;;;;;;;;5007443;28;20058;-84
2022/07/05 23:20:36;;;;;;;3.63;1.10;;;;;;;;;;4942724;28;20050;-85
2022/07/05 23:23:31;;;;;;;7.32;1.63;;;;;;;;;;4962229;28;20116;-84
2022/07/05 23:27:16;;;;;;;6.50;1.30;;;;;;;;;;5007097;28;20049;-83
2022/07/05 23:31:22;;;;;;;3.28;0.93;;;;;;;;;;5020937;28;20042;-83
2022/07/05 23:34:04;;;;;;;7.03;1.20;;;;;;;;;;5008703;28;20111;-84
2022/07/05 23:38:37;;;;;;;4.35;1.42;;;;;;;;;;5001410;28;20057;-84
2022/07/05 23:42:09;;;;;;;10.80;1.40;;;;;;;;;;4977181;28;20046;-84
2022/07/05 23:51:06;;;;;;;4.07;1.20;;;;;;;;;;4903799;29;20131;-85
2022/07/05 23:54:14;;;;;;;5.93;1.30;;;;;;;;;;4933316;29;20055;-84
2022/07/05 23:56:56;;;;;;;2.58;1.15;;;;;;;;;;4929673;28;20051;-84
2022/07/05 23:59:38;;;;;;;6.60;1.33;;;;;;;;;;4886628;28;20158;-85
